Aviation Digital Data Service (ADDS)

Output produced by METARs form (0546 UTC 18 January 2018)
found at http://aviationweather.gov/adds/metars/
 
METAR text: KSIY 180453Z AUTO 16019G25KT 10SM CLR 12/05 A2998 RMK AO2 PK WND 16028/0421 SLP163 T01170050
Conditions at: KSIY (MONTAGUE/SISKIYO, CA, US) observed 0453 UTC 18 January 2018
Temperature: 11.7°C (53°F)
Dewpoint: 5.0°C (41°F) [RH = 63%]
Pressure (altimeter): 29.98 inches Hg (1015.3 mb)
[Sea-level pressure: 1016.3 mb]
Winds: from the SSE (160 degrees) at 22 MPH (19 knots; 9.9 m/s)
gusting to 29 MPH (25 knots; 13.0 m/s)
Visibility: 10 or more miles (16+ km)
Ceiling: at least 12,000 feet AGL
Clouds: sky clear below 12,000 feet AGL
Weather: automated observation with no human augmentation;
there may or may not be significant weather present at this time